首页
METAR-TAF:

METAR-TAF

机场 :

Marquette, 密歇根州, 美国

纬度: 46-21-13N, 经度: 087-23-45W, 海拔: 372米

当前天气观测

该预报发布于31分钟前的08:38 UTC
风速7节,风向西转西南
温度 -13°C
湿度 92%
气压 1029 hPa
能見度: 16.1公里
天空无云

METAR: KSAW 210838Z AUTO 24007KT 10SM CLR M13/M14 A3039 RMK AO2 T11261143

时间: 04:09 (09:09 UTC)

预报

该预报发布于3小时和49分钟前的05:20 UTC
预报有效从21日的 06点(UTC)到 22日的 06点(UTC)
风速6节,风向西转西南
能見度: 10公里
少量云层高于20000英尺
从 21日的 1200点(UTC)
风速9节,风向西南
能見度: 10公里
少量云层高于25000英尺
从 21日的 1600点(UTC)
风速12节,风向西南,有时为21节阵风
能見度: 10公里
少量云层高于25000英尺
从 21日的 2300点(UTC)
风速12节,风向南转西南,有时为20节阵风
能見度: 10公里
少量云层高于25000英尺

TAF: KSAW 210520Z 2106/2206 24006KT P6SM FEW200 FM211200 23009KT P6SM FEW250 WS012/27035KT FM211600 23012G21KT P6SM FEW250 WS020/27045KT FM212300 21012G20KT P6SM FEW250 WS020/25050KT

超过4000个机场的气象观测和天气预报(METAR&TAF报告)。

可查询的气象台以黄色和红色小点在地图上表示。

将鼠标移到小点上方,可查看气象台名称。

然后点击查看天气观测和预报。

如需切换地图:点击带黑十字的绿色按钮放大地图;点击带横线的绿色按钮缩小地图;或者点击绿色箭头查看邻近地区的地图。


METAR-TAF: